Time;durP1;ratioP1;P1;durP2;ratioP2;P2;SDS_P1;SDS_P2;PMS_P1;PMS_P2;Temp;Humidity;BMP_temperature;BMP_pressure;BME280_temperature;BME280_humidity;BME280_pressure;Samples;Min_cycle;Max_cycle;Signal;HPM_P1;HPM_P2
2022/08/10 00:00:26;;;;;;;1.47;0.90;;;20.90;81.10;;;;;;4950917;29;20469;-78
2022/08/10 00:02:55;;;;;;;1.43;0.90;;;20.80;81.10;;;;;;4954958;28;20766;-78
2022/08/10 00:05:23;;;;;;;1.47;0.90;;;20.80;81.50;;;;;;4950197;29;20469;-78
2022/08/10 00:07:51;;;;;;;1.43;0.90;;;20.80;82.00;;;;;;4955656;28;20580;-78
2022/08/10 00:10:21;;;;;;;1.50;1.00;;;20.70;81.70;;;;;;4952685;28;20462;-77
2022/08/10 00:12:48;;;;;;;1.50;0.90;;;20.70;81.30;;;;;;4951245;28;20474;-78
2022/08/10 00:15:18;;;;;;;1.40;0.90;;;20.60;82.30;;;;;;4949121;28;20495;-77
2022/08/10 00:17:45;;;;;;;1.50;0.90;;;20.60;82.40;;;;;;4955477;28;20647;-78
2022/08/10 00:20:13;;;;;;;1.47;0.90;;;20.60;82.00;;;;;;4950744;29;20569;-78
2022/08/10 00:22:40;;;;;;;1.47;0.90;;;20.50;81.60;;;;;;4955182;28;20577;-78
2022/08/10 00:25:09;;;;;;;1.50;0.90;;;20.50;82.20;;;;;;4950409;28;20832;-79
2022/08/10 00:27:37;;;;;;;1.43;0.90;;;20.50;82.00;;;;;;4954076;28;21003;-78
2022/08/10 00:30:05;;;;;;;1.47;0.90;;;20.40;82.20;;;;;;4950997;28;20549;-77
2022/08/10 00:32:32;;;;;;;1.47;0.90;;;20.40;83.00;;;;;;4952712;28;20505;-78
2022/08/10 00:34:59;;;;;;;1.47;0.90;;;20.40;83.00;;;;;;4951598;28;20842;-78
2022/08/10 00:37:26;;;;;;;1.47;0.90;;;20.30;83.20;;;;;;4951614;28;21009;-78
2022/08/10 00:39:52;;;;;;;1.47;0.90;;;20.30;83.00;;;;;;4950404;29;20466;-77
2022/08/10 00:42:20;;;;;;;1.43;0.90;;;20.30;83.40;;;;;;4953782;28;20520;-77
2022/08/10 00:44:49;;;;;;;1.47;0.90;;;20.20;82.60;;;;;;4953100;28;20505;-78
2022/08/10 00:47:17;;;;;;;1.43;0.90;;;20.20;82.80;;;;;;4946393;28;20889;-78
2022/08/10 00:49:44;;;;;;;1.47;0.90;;;20.20;82.70;;;;;;4949618;29;20490;-78
2022/08/10 00:52:13;;;;;;;1.43;0.90;;;20.10;82.70;;;;;;4949514;28;20969;-77
2022/08/10 00:54:42;;;;;;;1.47;0.90;;;20.10;82.90;;;;;;4949758;29;20470;-78
2022/08/10 00:57:09;;;;;;;1.40;0.87;;;20.10;83.10;;;;;;4945534;28;20499;-77
2022/08/10 00:59:36;;;;;;;1.47;1.07;;;20.00;83.90;;;;;;4949028;29;20463;-77
2022/08/10 01:02:04;;;;;;;1.47;0.90;;;20.00;83.80;;;;;;4953037;28;20732;-77
2022/08/10 01:04:31;;;;;;;1.47;0.90;;;20.00;84.30;;;;;;4957297;28;20565;-77
2022/08/10 01:07:14;;;;;;;1.43;0.90;;;20.00;85.30;;;;;;4952371;28;20577;-78
2022/08/10 01:09:49;;;;;;;1.47;0.90;;;19.90;84.40;;;;;;4953398;28;20505;-77
2022/08/10 01:12:25;;;;;;;1.43;0.90;;;19.90;84.00;;;;;;4951117;28;20489;-77
2022/08/10 01:15:00;;;;;;;1.40;0.90;;;19.80;84.90;;;;;;4951261;28;20466;-77
2022/08/10 01:17:36;;;;;;;1.47;0.90;;;19.80;83.90;;;;;;4944646;28;20573;-77
2022/08/10 01:20:17;;;;;;;1.43;0.90;;;19.80;84.90;;;;;;4938072;28;20819;-79
2022/08/10 01:23:20;;;;;;;1.47;0.90;;;19.70;84.30;;;;;;4953405;28;21014;-78
2022/08/10 01:26:05;;;;;;;1.47;0.90;;;19.70;84.50;;;;;;4943262;28;20971;-78
2022/08/10 01:28:53;;;;;;;1.47;1.00;;;19.70;84.90;;;;;;4962820;28;20494;-77
2022/08/10 01:31:27;;;;;;;1.40;0.90;;;19.70;85.40;;;;;;4943880;28;20565;-77
2022/08/10 01:33:58;;;;;;;1.50;1.00;;;19.60;84.70;;;;;;4960372;28;20918;-78
2022/08/10 01:36:29;;;;;;;1.40;0.90;;;19.60;84.90;;;;;;4948906;28;20575;-77
2022/08/10 01:39:00;;;;;;;1.43;0.90;;;19.60;84.50;;;;;;4963805;28;20466;-77
2022/08/10 01:41:31;;;;;;;1.43;0.90;;;19.50;84.70;;;;;;4949032;28;20477;-78
2022/08/10 01:44:02;;;;;;;1.47;0.90;;;19.50;84.90;;;;;;4961214;28;20459;-77
2022/08/10 01:46:32;;;;;;;1.40;0.90;;;19.50;85.50;;;;;;4947906;28;20497;-76
2022/08/10 01:48:59;;;;;;;1.47;0.90;;;19.50;85.20;;;;;;4962341;28;20502;-77
2022/08/10 01:51:31;;;;;;;1.50;1.00;;;19.50;85.50;;;;;;4945647;28;20523;-77
2022/08/10 01:54:02;;;;;;;1.50;0.90;;;19.40;85.60;;;;;;4961028;28;20478;-77
2022/08/10 01:56:31;;;;;;;1.43;1.00;;;19.40;85.70;;;;;;4952829;28;20494;-77
2022/08/10 01:59:02;;;;;;;1.43;0.90;;;19.40;86.10;;;;;;4952234;29;20470;-77
2022/08/10 02:01:37;;;;;;;1.47;1.00;;;19.30;86.10;;;;;;4951110;28;20480;-77
2022/08/10 02:04:08;;;;;;;1.43;0.90;;;19.30;86.30;;;;;;4960474;28;20465;-78
2022/08/10 02:06:42;;;;;;;1.50;0.90;;;19.30;86.50;;;;;;4949289;28;20580;-77
2022/08/10 02:09:11;;;;;;;1.47;0.90;;;19.30;86.30;;;;;;4954142;28;20495;-77
2022/08/10 02:11:38;;;;;;;1.43;1.00;;;19.20;86.30;;;;;;4943963;28;20478;-78
2022/08/10 02:14:07;;;;;;;1.40;0.90;;;19.20;87.00;;;;;;4950455;29;20463;-77
2022/08/10 02:16:37;;;;;;;1.43;0.90;;;19.20;86.60;;;;;;4944495;28;20876;-78
2022/08/10 02:19:06;;;;;;;1.50;0.90;;;19.20;86.70;;;;;;4961291;28;20473;-77
2022/08/10 02:21:33;;;;;;;1.43;1.00;;;19.20;87.00;;;;;;4948493;28;20602;-77
2022/08/10 02:24:02;;;;;;;1.40;0.90;;;19.10;87.30;;;;;;4960353;28;20561;-77
2022/08/10 02:26:30;;;;;;;1.50;1.00;;;19.10;87.40;;;;;;4941685;28;20498;-77
2022/08/10 02:28:58;;;;;;;1.50;0.93;;;19.10;87.30;;;;;;4950864;29;21094;-77
2022/08/10 02:31:27;;;;;;;1.40;0.90;;;19.10;87.20;;;;;;4952054;28;20511;-77
2022/08/10 02:33:57;;;;;;;1.40;0.90;;;19.00;87.40;;;;;;4960869;28;20477;-77
2022/08/10 02:36:26;;;;;;;1.50;1.00;;;19.00;87.80;;;;;;4946017;28;20522;-76
2022/08/10 02:38:57;;;;;;;1.50;0.90;;;19.00;87.80;;;;;;4960992;28;21393;-77
2022/08/10 02:41:31;;;;;;;1.47;0.90;;;19.00;89.00;;;;;;4952269;28;20477;-77
2022/08/10 02:44:03;;;;;;;1.47;0.90;;;18.90;88.10;;;;;;4951162;29;20533;-77
2022/08/10 02:46:36;;;;;;;1.43;0.90;;;18.90;88.50;;;;;;4946865;28;20494;-76
2022/08/10 02:49:06;;;;;;;1.47;0.90;;;18.90;88.30;;;;;;4959506;28;20946;-77
2022/08/10 02:51:43;;;;;;;1.50;0.90;;;18.80;88.40;;;;;;4951877;28;20471;-78
2022/08/10 02:54:17;;;;;;;1.40;0.90;;;18.80;88.60;;;;;;4951364;29;20475;-77
2022/08/10 02:56:54;;;;;;;1.43;0.90;;;18.80;88.80;;;;;;4950956;28;20486;-76
2022/08/10 02:59:25;;;;;;;1.50;0.90;;;18.70;89.50;;;;;;4946760;29;20467;-77
2022/08/10 03:01:57;;;;;;;1.47;0.90;;;18.70;88.60;;;;;;4949833;28;20497;-77
2022/08/10 03:04:30;;;;;;;1.47;0.90;;;18.70;89.40;;;;;;4957364;28;20467;-77
2022/08/10 03:07:02;;;;;;;1.40;0.90;;;18.70;89.70;;;;;;4951697;28;20514;-77
2022/08/10 03:09:31;;;;;;;1.43;0.90;;;18.60;88.90;;;;;;4951974;28;20498;-76
2022/08/10 03:11:59;;;;;;;1.50;1.00;;;18.60;88.90;;;;;;4957572;28;20467;-78
2022/08/10 03:14:29;;;;;;;1.47;0.90;;;18.60;89.10;;;;;;4951067;29;20478;-77
2022/08/10 03:16:58;;;;;;;1.50;1.00;;;18.60;89.40;;;;;;4951926;28;20533;-78
2022/08/10 03:19:28;;;;;;;1.40;0.90;;;18.50;89.80;;;;;;4951890;29;20467;-77
2022/08/10 03:21:55;;;;;;;1.40;1.00;;;18.50;89.80;;;;;;4949544;28;20463;-77
2022/08/10 03:24:24;;;;;;;1.40;0.90;;;18.50;90.40;;;;;;4951418;29;20839;-78
2022/08/10 03:26:53;;;;;;;1.43;1.00;;;18.50;89.70;;;;;;4951968;28;20486;-77
2022/08/10 03:29:22;;;;;;;1.47;0.90;;;18.40;89.40;;;;;;4958829;28;20490;-77
2022/08/10 03:31:51;;;;;;;1.40;0.90;;;18.40;89.80;;;;;;4948748;28;20904;-76
2022/08/10 03:34:19;;;;;;;1.40;0.90;;;18.40;90.00;;;;;;4954850;28;20525;-78
2022/08/10 03:36:47;;;;;;;1.43;0.90;;;18.40;90.00;;;;;;4948775;28;20505;-77
2022/08/10 03:39:14;;;;;;;1.47;0.90;;;18.40;90.20;;;;;;4959878;28;20545;-77
2022/08/10 03:41:46;;;;;;;1.40;0.93;;;18.40;90.20;;;;;;4952834;28;20494;-77
2022/08/10 03:44:25;;;;;;;1.43;0.97;;;18.30;90.60;;;;;;4950456;29;20973;-77
2022/08/10 03:46:53;;;;;;;1.43;0.90;;;18.30;90.40;;;;;;4949670;28;20560;-77
2022/08/10 03:49:22;;;;;;;1.47;0.90;;;18.30;90.20;;;;;;4956800;28;20490;-77
2022/08/10 03:51:50;;;;;;;1.50;0.90;;;18.30;90.70;;;;;;4949782;28;20910;-79
2022/08/10 03:54:19;;;;;;;1.50;0.90;;;18.30;90.50;;;;;;4957309;28;21004;-78
2022/08/10 03:56:47;;;;;;;1.47;0.90;;;18.30;90.70;;;;;;4948139;28;20498;-77
2022/08/10 03:59:21;;;;;;;1.47;0.90;;;18.20;90.70;;;;;;4957254;28;20595;-78
2022/08/10 04:01:50;;;;;;;1.50;0.90;;;18.20;90.60;;;;;;4948060;28;20489;-78
2022/08/10 04:04:18;;;;;;;1.47;0.90;;;18.20;91.00;;;;;;4951772;28;20530;-77
2022/08/10 04:06:45;;;;;;;1.47;0.90;;;18.10;90.80;;;;;;4947925;28;20492;-78
2022/08/10 04:09:15;;;;;;;1.40;1.00;;;18.10;91.40;;;;;;4953193;28;20922;-79
2022/08/10 04:11:42;;;;;;;1.43;0.90;;;18.10;91.10;;;;;;4948673;28;20505;-79
2022/08/10 04:14:09;;;;;;;1.40;0.90;;;18.10;91.70;;;;;;4959576;28;20498;-77
2022/08/10 04:16:36;;;;;;;1.50;0.90;;;18.10;91.70;;;;;;4947715;28;20482;-77
2022/08/10 04:19:04;;;;;;;1.50;1.00;;;18.10;91.70;;;;;;4954492;28;20466;-76
2022/08/10 04:21:36;;;;;;;1.40;1.00;;;18.10;91.00;;;;;;4943340;28;21038;-78
2022/08/10 04:24:06;;;;;;;1.47;0.90;;;18.00;91.30;;;;;;4954673;28;20475;-78
2022/08/10 04:26:34;;;;;;;1.50;1.00;;;18.00;91.40;;;;;;4941805;28;20577;-77
2022/08/10 04:29:02;;;;;;;1.50;0.90;;;18.00;92.20;;;;;;4957908;28;20554;-78
2022/08/10 04:31:31;;;;;;;1.40;0.90;;;18.00;91.70;;;;;;4941890;28;20486;-78
2022/08/10 04:33:59;;;;;;;1.50;1.10;;;18.00;92.20;;;;;;4953355;28;20466;-78
2022/08/10 04:36:28;;;;;;;1.50;0.90;;;18.00;92.00;;;;;;4940137;28;21261;-78
2022/08/10 04:39:15;;;;;;;1.47;0.90;;;18.00;92.00;;;;;;4959509;28;20950;-80
2022/08/10 04:41:44;;;;;;;1.50;1.00;;;18.00;92.60;;;;;;4947992;28;21095;-79
2022/08/10 04:44:11;;;;;;;1.47;0.90;;;18.00;92.20;;;;;;4960907;28;20530;-78
2022/08/10 04:46:38;;;;;;;1.47;1.00;;;18.00;93.00;;;;;;4946089;28;20497;-79
2022/08/10 04:49:06;;;;;;;1.50;0.90;;;18.00;92.90;;;;;;4954994;28;20470;-80
2022/08/10 04:51:33;;;;;;;1.50;0.90;;;18.00;92.40;;;;;;4951767;28;20559;-80
2022/08/10 04:54:00;;;;;;;1.47;1.00;;;18.10;92.50;;;;;;4959328;28;20466;-78
2022/08/10 04:56:27;;;;;;;1.50;0.90;;;18.10;92.00;;;;;;4950136;28;20497;-79
2022/08/10 04:58:55;;;;;;;1.43;0.90;;;18.10;92.30;;;;;;4960809;28;20474;-79
2022/08/10 05:01:22;;;;;;;1.43;1.00;;;18.20;92.50;;;;;;4947224;28;20481;-79
2022/08/10 05:03:49;;;;;;;1.40;1.00;;;18.20;92.60;;;;;;4963972;28;20558;-79
2022/08/10 05:06:16;;;;;;;1.47;0.90;;;18.20;92.50;;;;;;4952232;28;20480;-80
2022/08/10 05:08:44;;;;;;;1.50;0.90;;;18.30;92.30;;;;;;4967225;28;20561;-78
2022/08/10 05:11:11;;;;;;;1.50;1.00;;;18.30;92.80;;;;;;4947816;28;21863;-78
2022/08/10 05:13:38;;;;;;;1.50;1.00;;;18.40;93.00;;;;;;4967700;28;20479;-79
2022/08/10 05:16:10;;;;;;;1.47;0.90;;;18.40;93.50;;;;;;4956836;28;20473;-79
2022/08/10 05:18:38;;;;;;;1.40;0.90;;;18.50;93.80;;;;;;4956976;29;20475;-79
2022/08/10 05:21:06;;;;;;;1.43;0.90;;;18.60;93.50;;;;;;4949518;28;20478;-80
2022/08/10 05:23:35;;;;;;;1.47;1.00;;;18.70;93.60;;;;;;4971794;28;20494;-79
2022/08/10 05:26:03;;;;;;;1.40;0.90;;;18.80;93.70;;;;;;4946213;28;20801;-80
2022/08/10 05:28:33;;;;;;;1.47;0.90;;;19.00;93.40;;;;;;4966982;28;20502;-80
2022/08/10 05:31:00;;;;;;;1.40;0.90;;;19.20;92.80;;;;;;4947789;28;20822;-79
2022/08/10 05:33:29;;;;;;;1.50;0.93;;;19.40;92.10;;;;;;4967806;28;20493;-80
2022/08/10 05:35:59;;;;;;;1.43;0.90;;;19.60;91.70;;;;;;4957318;28;20466;-80
2022/08/10 05:38:32;;;;;;;1.50;0.90;;;19.70;91.40;;;;;;4957843;28;20537;-81
2022/08/10 05:41:00;;;;;;;1.43;0.90;;;19.90;90.70;;;;;;4946911;28;20982;-80
2022/08/10 05:43:33;;;;;;;1.43;0.90;;;20.10;90.10;;;;;;4961574;28;20638;-80
2022/08/10 05:46:02;;;;;;;1.50;0.90;;;20.30;90.00;;;;;;4947467;28;20561;-79
2022/08/10 05:48:31;;;;;;;1.50;0.90;;;20.50;89.30;;;;;;4973238;28;20870;-79
2022/08/10 05:50:58;;;;;;;1.47;1.00;;;20.80;88.70;;;;;;4945608;28;20558;-80
2022/08/10 05:53:26;;;;;;;1.50;0.90;;;21.00;87.50;;;;;;4966186;28;20467;-79
2022/08/10 05:55:53;;;;;;;1.47;0.90;;;21.30;87.10;;;;;;4943248;28;20465;-80
2022/08/10 05:58:20;;;;;;;1.47;0.90;;;21.50;85.80;;;;;;4967522;28;20569;-80
2022/08/10 06:00:52;;;;;;;1.43;0.90;;;21.80;85.50;;;;;;4944706;28;20463;-81
2022/08/10 06:03:24;;;;;;;1.50;0.90;;;21.90;84.60;;;;;;4972599;28;20463;-80
2022/08/10 06:05:56;;;;;;;1.50;0.90;;;22.10;84.50;;;;;;4943914;28;20678;-79
2022/08/10 06:08:29;;;;;;;1.50;0.90;;;22.40;83.30;;;;;;4968742;28;20491;-80
2022/08/10 06:10:57;;;;;;;1.47;0.90;;;22.60;83.20;;;;;;4953681;28;20953;-81
2022/08/10 06:16:13;;;;;;;1.47;0.90;;;23.00;81.80;;;;;;4948226;28;20492;-79
2022/08/10 06:18:40;;;;;;;1.47;0.90;;;23.30;81.20;;;;;;4965998;28;20494;-81
2022/08/10 06:21:09;;;;;;;1.47;0.90;;;23.50;80.40;;;;;;4946009;28;22078;-81
2022/08/10 06:26:26;;;;;;;1.50;0.90;;;23.90;78.90;;;;;;4936860;28;20494;-80
2022/08/10 06:28:59;;;;;;;1.43;0.90;;;24.00;77.80;;;;;;4962160;28;20459;-79
2022/08/10 06:31:28;;;;;;;1.50;0.90;;;24.20;77.20;;;;;;4948530;28;20488;-79
2022/08/10 06:33:57;;;;;;;1.47;0.90;;;24.30;77.10;;;;;;4962203;28;20471;-80
2022/08/10 06:36:27;;;;;;;1.47;0.87;;;24.40;76.20;;;;;;4954562;28;20482;-79
2022/08/10 06:38:56;;;;;;;1.40;0.90;;;24.50;76.00;;;;;;4955357;29;20987;-80
2022/08/10 06:41:26;;;;;;;1.47;0.87;;;24.70;76.10;;;;;;4948222;28;20546;-78
2022/08/10 06:46:50;;;;;;;1.47;0.90;;;25.10;74.70;;;;;;4942666;28;20534;-80
2022/08/10 06:49:25;;;;;;;1.40;0.90;;;25.30;73.50;;;;;;4949752;29;20463;-81
2022/08/10 06:51:57;;;;;;;1.47;0.90;;;25.50;72.20;;;;;;4957580;28;20500;-80
2022/08/10 06:54:27;;;;;;;1.57;1.13;;;25.50;72.20;;;;;;4960554;28;20513;-81
2022/08/10 06:56:57;;;;;;;1.47;0.87;;;25.70;71.70;;;;;;4961550;28;20501;-81
2022/08/10 06:59:30;;;;;;;1.50;0.90;;;25.80;71.00;;;;;;4969338;28;20470;-80
2022/08/10 07:02:04;;;;;;;1.40;0.80;;;25.90;71.00;;;;;;4959938;28;20517;-82
2022/08/10 07:04:43;;;;;;;1.50;0.90;;;26.00;70.60;;;;;;4967763;28;20463;-80
2022/08/10 07:07:19;;;;;;;1.47;0.80;;;26.20;69.50;;;;;;4966873;28;20505;-79
2022/08/10 07:10:03;;;;;;;1.47;0.90;;;26.30;69.10;;;;;;4957453;29;20463;-80
2022/08/10 07:12:32;;;;;;;1.50;0.90;;;26.50;67.50;;;;;;4962132;28;20470;-81
2022/08/10 07:15:01;;;;;;;1.50;0.90;;;26.80;67.60;;;;;;4962757;28;20466;-82
2022/08/10 07:17:39;;;;;;;1.50;1.00;;;26.80;68.20;;;;;;4957263;28;20497;-81
2022/08/10 07:20:15;;;;;;;1.50;0.80;;;27.00;67.20;;;;;;4958409;28;20505;-82
2022/08/10 07:22:51;;;;;;;1.50;0.83;;;27.00;67.00;;;;;;4961071;28;20478;-81
2022/08/10 07:25:23;;;;;;;1.50;0.87;;;27.10;66.90;;;;;;4955014;29;20458;-81
2022/08/10 07:27:52;;;;;;;1.50;1.00;;;27.20;67.20;;;;;;4947335;29;20861;-83
2022/08/10 07:30:45;;;;;;;1.50;0.90;;;27.30;66.30;;;;;;4956553;29;20470;-82
2022/08/10 07:33:18;;;;;;;1.40;0.87;;;27.40;66.10;;;;;;4945749;29;20502;-83
2022/08/10 07:35:52;;;;;;;1.40;0.80;;;27.50;66.30;;;;;;4960985;29;20487;-83
2022/08/10 07:38:29;;;;;;;1.50;0.90;;;27.70;65.10;;;;;;4962180;28;20487;-80
2022/08/10 07:41:00;;;;;;;1.50;0.90;;;27.80;66.50;;;;;;4959589;29;20466;-84
2022/08/10 07:43:37;;;;;;;1.50;0.90;;;28.00;65.70;;;;;;4952371;29;20473;-81
2022/08/10 07:46:10;;;;;;;1.40;0.80;;;28.10;65.70;;;;;;4953834;28;20470;-81
2022/08/10 07:48:47;;;;;;;1.40;0.80;;;28.20;64.70;;;;;;4963121;29;20502;-81
2022/08/10 07:51:19;;;;;;;1.43;0.90;;;28.20;65.50;;;;;;4949164;28;20532;-82
2022/08/10 07:53:53;;;;;;;1.43;0.80;;;28.20;65.40;;;;;;4951976;28;20902;-82
2022/08/10 07:56:26;;;;;;;1.47;0.80;;;28.10;65.90;;;;;;4952907;28;20480;-83
2022/08/10 07:59:19;;;;;;;1.47;0.80;;;28.30;65.40;;;;;;4952588;28;20471;-81
2022/08/10 08:01:50;;;;;;;1.47;0.80;;;28.50;65.00;;;;;;4941857;28;20462;-80
2022/08/10 08:04:19;;;;;;;1.47;0.80;;;28.70;63.10;;;;;;4952930;29;20991;-80
2022/08/10 08:06:54;;;;;;;1.50;1.10;;;28.80;65.30;;;;;;4956625;28;20569;-82
2022/08/10 08:09:29;;;;;;;1.43;0.80;;;29.00;63.10;;;;;;4956367;29;20462;-82
2022/08/10 08:12:00;;;;;;;1.47;0.90;;;29.10;64.20;;;;;;4959893;29;20485;-82
2022/08/10 08:14:29;;;;;;;1.43;0.80;;;29.10;62.90;;;;;;4954311;29;20560;-82
2022/08/10 08:16:57;;;;;;;1.43;0.80;;;29.20;63.40;;;;;;4955931;28;20524;-81
2022/08/10 08:19:29;;;;;;;1.43;0.80;;;29.50;63.60;;;;;;4956403;29;20960;-82
2022/08/10 08:21:58;;;;;;;1.47;0.80;;;29.70;63.50;;;;;;4939393;29;20506;-80
2022/08/10 08:24:27;;;;;;;1.40;0.80;;;29.80;63.00;;;;;;4956225;28;20463;-81
2022/08/10 08:26:57;;;;;;;1.47;0.80;;;29.90;62.30;;;;;;4950258;29;20499;-79
2022/08/10 08:29:28;;;;;;;1.40;0.80;;;30.00;61.70;;;;;;4950631;29;20458;-83
2022/08/10 08:31:55;;;;;;;1.43;0.80;;;30.00;61.20;;;;;;4942805;29;20479;-80
2022/08/10 08:34:24;;;;;;;1.43;0.80;;;29.90;61.00;;;;;;4935420;29;20460;-81
2022/08/10 08:36:52;;;;;;;1.43;0.80;;;30.00;60.70;;;;;;4932375;29;20577;-80
2022/08/10 08:39:20;;;;;;;1.47;0.80;;;30.10;60.40;;;;;;4938659;29;20509;-82
2022/08/10 08:42:18;;;;;;;1.47;0.80;;;30.20;60.80;;;;;;4954554;29;20462;-82
2022/08/10 08:44:59;;;;;;;2.63;1.30;;;30.40;60.50;;;;;;4937518;29;20980;-81
2022/08/10 08:47:41;;;;;;;1.40;0.80;;;30.40;60.70;;;;;;4953329;29;20597;-80
2022/08/10 08:50:28;;;;;;;1.47;0.80;;;30.40;59.90;;;;;;4929846;29;20471;-83
2022/08/10 08:53:10;;;;;;;1.43;0.80;;;30.20;61.00;;;;;;4933627;29;20490;-82
2022/08/10 08:55:51;;;;;;;1.47;0.90;;;30.10;60.80;;;;;;4948627;29;20523;-83
2022/08/10 08:58:43;;;;;;;1.47;0.80;;;30.30;61.20;;;;;;4916371;29;20483;-83
2022/08/10 09:01:23;;;;;;;1.47;0.80;;;30.30;59.80;;;;;;4932062;29;20475;-82
2022/08/10 09:04:11;;;;;;;1.47;0.80;;;30.40;58.40;;;;;;4933847;29;20475;-82
2022/08/10 09:07:02;;;;;;;1.50;1.10;;;30.60;58.80;;;;;;4908740;29;20487;-82
2022/08/10 09:10:03;;;;;;;1.40;0.80;;;30.90;58.10;;;;;;4918172;29;20559;-82
2022/08/10 09:12:48;;;;;;;1.40;0.80;;;30.90;58.20;;;;;;4923105;29;20498;-82
2022/08/10 09:15:27;;;;;;;1.50;0.90;;;31.10;60.20;;;;;;4929196;29;20503;-82
2022/08/10 09:18:06;;;;;;;1.47;0.80;;;31.50;59.80;;;;;;4930577;29;20491;-82
2022/08/10 09:20:39;;;;;;;1.47;0.90;;;31.80;59.40;;;;;;4916325;29;20464;-81
2022/08/10 09:23:13;;;;;;;1.43;0.80;;;32.00;58.40;;;;;;4920965;29;20492;-82
2022/08/10 09:25:52;;;;;;;1.43;0.80;;;32.10;57.70;;;;;;4932144;29;20477;-81
2022/08/10 09:28:24;;;;;;;1.40;0.80;;;32.40;56.80;;;;;;4933020;29;20502;-81
2022/08/10 09:31:00;;;;;;;1.43;0.90;;;32.50;57.10;;;;;;4934032;29;20918;-81
2022/08/10 09:33:37;;;;;;;1.43;0.80;;;32.70;57.70;;;;;;4933915;29;20474;-81
2022/08/10 09:36:15;;;;;;;1.43;0.80;;;32.90;57.80;;;;;;4931966;29;20215;-81
2022/08/10 09:38:54;;;;;;;1.43;0.90;;;33.00;54.90;;;;;;4927815;29;20211;-82
2022/08/10 09:41:35;;;;;;;1.40;0.80;;;32.90;55.00;;;;;;4930038;29;20203;-83
2022/08/10 09:44:15;;;;;;;1.40;0.80;;;32.90;56.00;;;;;;4934536;29;20276;-83
2022/08/10 09:46:57;;;;;;;1.43;0.80;;;33.00;55.50;;;;;;4933184;29;20309;-80
2022/08/10 09:49:34;;;;;;;1.40;0.80;;;33.10;55.70;;;;;;4931596;29;20295;-82
2022/08/10 09:52:13;;;;;;;1.47;0.80;;;33.30;56.40;;;;;;4937119;29;20219;-84
2022/08/10 09:54:56;;;;;;;1.47;0.80;;;33.50;56.10;;;;;;4940037;29;20215;-83
2022/08/10 09:57:38;;;;;;;1.70;1.07;;;33.40;54.60;;;;;;4938247;29;20359;-83
2022/08/10 10:00:09;;;;;;;1.43;0.80;;;33.70;56.10;;;;;;4940072;29;20238;-81
2022/08/10 10:02:51;;;;;;;1.40;0.80;;;33.80;54.70;;;;;;4936258;29;20208;-82
2022/08/10 10:05:48;;;;;;;1.47;0.80;;;33.90;55.30;;;;;;4937306;29;20234;-83
2022/08/10 10:08:24;;;;;;;1.40;0.80;;;34.00;55.00;;;;;;4939703;29;20236;-82
2022/08/10 10:11:00;;;;;;;1.42;0.80;;;34.20;54.30;;;;;;4935928;29;20279;-82
2022/08/10 10:13:36;;;;;;;1.40;0.80;;;34.00;54.10;;;;;;4934308;29;20214;-84
2022/08/10 10:19:33;;;;;;;1.40;0.80;;;33.30;54.10;;;;;;4936704;29;20203;-80
2022/08/10 10:22:24;;;;;;;1.40;0.80;;;33.40;54.60;;;;;;4933159;29;20232;-84
2022/08/10 10:25:00;;;;;;;1.93;1.00;;;33.50;54.40;;;;;;4937034;29;20275;-84
2022/08/10 10:27:47;;;;;;;1.40;0.80;;;33.80;54.50;;;;;;4935990;29;20257;-82
2022/08/10 10:30:18;;;;;;;1.40;0.80;;;33.80;52.90;;;;;;4929568;29;20208;-83
2022/08/10 10:32:59;;;;;;;1.40;0.80;;;33.70;53.90;;;;;;4940468;29;20208;-83
2022/08/10 10:35:38;;;;;;;1.40;0.80;;;33.90;54.30;;;;;;4937435;29;20239;-82
2022/08/10 10:38:13;;;;;;;1.40;0.80;;;34.20;52.80;;;;;;4935527;29;20246;-82
2022/08/10 10:40:50;;;;;;;1.40;0.80;;;34.60;54.20;;;;;;4923042;29;20273;-83
2022/08/10 10:43:44;;;;;;;1.40;0.80;;;34.40;51.40;;;;;;4934919;29;20270;-79
2022/08/10 10:46:22;;;;;;;1.40;0.80;;;34.10;51.30;;;;;;4917309;29;20212;-83
2022/08/10 10:49:03;;;;;;;1.40;0.80;;;33.80;52.50;;;;;;4938465;29;20287;-82
2022/08/10 10:51:38;;;;;;;1.40;0.82;;;33.80;53.10;;;;;;4918010;29;20673;-80
2022/08/10 10:54:11;;;;;;;1.40;0.80;;;34.20;53.00;;;;;;4916415;29;20212;-83
2022/08/10 10:56:51;;;;;;;1.42;0.80;;;34.70;52.70;;;;;;4924774;29;20736;-83
2022/08/10 10:59:30;;;;;;;1.40;0.80;;;35.10;51.30;;;;;;4926128;29;20262;-82
2022/08/10 11:02:09;;;;;;;1.40;0.80;;;35.10;50.70;;;;;;4932787;29;20302;-82
2022/08/10 11:04:47;;;;;;;1.40;0.80;;;35.30;51.40;;;;;;4919515;29;20219;-82
2022/08/10 11:07:34;;;;;;;1.40;0.90;;;35.30;50.40;;;;;;4919879;29;20274;-84
2022/08/10 11:10:07;;;;;;;1.40;0.80;;;35.40;51.60;;;;;;4917388;29;20204;-83
2022/08/10 11:12:42;;;;;;;1.45;0.88;;;35.60;51.80;;;;;;4924886;29;20243;-82
2022/08/10 11:15:22;;;;;;;1.40;0.80;;;35.60;49.60;;;;;;4919560;29;20204;-83
2022/08/10 11:17:55;;;;;;;1.40;0.80;;;35.40;50.50;;;;;;4933854;29;20318;-81
2022/08/10 11:20:26;;;;;;;1.40;0.80;;;35.20;50.00;;;;;;4913310;29;20208;-83
2022/08/10 11:23:17;;;;;;;1.40;0.80;;;34.90;50.80;;;;;;4916565;29;20264;-79
2022/08/10 11:25:54;;;;;;;1.40;0.80;;;34.70;50.90;;;;;;4913815;29;20594;-83
2022/08/10 11:28:34;;;;;;;1.40;0.80;;;35.10;52.00;;;;;;4932151;29;20246;-81
2022/08/10 11:31:09;;;;;;;1.40;0.88;;;35.50;51.50;;;;;;4941454;29;20578;-82
2022/08/10 11:33:42;;;;;;;1.40;0.90;;;35.60;50.10;;;;;;4936293;29;20219;-83
2022/08/10 11:36:27;;;;;;;1.40;0.80;;;35.60;49.90;;;;;;4931138;29;20243;-84
2022/08/10 11:39:09;;;;;;;1.40;0.80;;;35.70;51.10;;;;;;4937644;29;20298;-79
2022/08/10 11:41:49;;;;;;;1.70;1.60;;;35.90;50.50;;;;;;4936937;29;20208;-81
2022/08/10 11:44:26;;;;;;;1.40;0.80;;;36.20;50.70;;;;;;4936690;29;20274;-83
2022/08/10 11:47:03;;;;;;;1.40;0.80;;;36.20;49.80;;;;;;4937565;29;20254;-84
2022/08/10 11:49:35;;;;;;;1.40;0.80;;;36.10;49.70;;;;;;4937703;29;20237;-80
2022/08/10 11:52:09;;;;;;;1.40;0.80;;;36.10;48.80;;;;;;4936003;29;20212;-82
2022/08/10 11:54:43;;;;;;;1.40;0.80;;;36.00;49.80;;;;;;4939768;29;20266;-83
2022/08/10 11:57:12;;;;;;;1.40;0.90;;;36.10;49.50;;;;;;4938154;29;20362;-81
2022/08/10 11:59:55;;;;;;;1.40;0.80;;;36.20;50.10;;;;;;4936656;29;20219;-81
2022/08/10 12:02:25;;;;;;;1.40;0.80;;;36.30;49.60;;;;;;4940218;29;20235;-81
2022/08/10 12:04:57;;;;;;;1.40;0.80;;;36.50;48.30;;;;;;4937753;29;20235;-83
2022/08/10 12:07:26;;;;;;;1.40;0.80;;;36.80;48.40;;;;;;4924683;29;20239;-81
2022/08/10 12:09:56;;;;;;;1.40;0.80;;;36.50;47.40;;;;;;4928886;29;20211;-81
2022/08/10 12:12:24;;;;;;;1.35;0.80;;;36.50;48.60;;;;;;4928847;29;20219;-81
2022/08/10 12:15:00;;;;;;;1.40;0.80;;;36.70;47.90;;;;;;4937706;29;20234;-80
2022/08/10 12:17:34;;;;;;;1.40;0.80;;;36.80;46.50;;;;;;4938369;29;20351;-80
2022/08/10 12:20:07;;;;;;;1.40;0.80;;;36.70;46.60;;;;;;4941617;29;20214;-82
2022/08/10 12:22:48;;;;;;;1.30;0.80;;;36.20;47.30;;;;;;4933316;29;20246;-81
2022/08/10 12:25:28;;;;;;;1.40;0.90;;;36.00;47.00;;;;;;4934176;29;20219;-80
2022/08/10 12:28:05;;;;;;;1.38;0.80;;;36.10;47.40;;;;;;4935167;29;20294;-81
2022/08/10 12:30:36;;;;;;;1.40;0.80;;;36.20;46.00;;;;;;4934262;29;20235;-81
2022/08/10 12:33:08;;;;;;;1.40;0.80;;;36.20;46.90;;;;;;4938064;29;20203;-83
2022/08/10 12:35:41;;;;;;;1.40;0.80;;;36.20;48.10;;;;;;4934379;29;20274;-81
2022/08/10 12:38:15;;;;;;;1.30;0.80;;;36.30;47.00;;;;;;4937772;29;20235;-82
2022/08/10 12:40:48;;;;;;;1.40;0.80;;;36.40;46.80;;;;;;4930261;29;20210;-81
2022/08/10 12:43:22;;;;;;;1.40;0.80;;;36.50;46.00;;;;;;4929430;29;20701;-80
2022/08/10 12:46:01;;;;;;;1.40;0.80;;;36.50;46.60;;;;;;4929994;29;20241;-81
2022/08/10 12:48:36;;;;;;;1.40;0.90;;;36.60;46.60;;;;;;4935567;29;20675;-80
2022/08/10 12:51:10;;;;;;;1.33;0.80;;;36.60;46.90;;;;;;4927501;29;20295;-82
2022/08/10 12:53:47;;;;;;;1.40;0.80;;;36.70;46.80;;;;;;4932729;29;20250;-80
2022/08/10 12:56:27;;;;;;;1.40;0.80;;;36.60;46.10;;;;;;4929697;29;20849;-81
2022/08/10 12:58:55;;;;;;;1.38;0.80;;;36.50;47.00;;;;;;4937276;29;20278;-80
2022/08/10 13:01:26;;;;;;;1.40;0.80;;;36.70;47.30;;;;;;4932992;29;20226;-80
2022/08/10 13:04:15;;;;;;;1.35;0.80;;;36.80;47.30;;;;;;4941661;29;20231;-83
2022/08/10 13:06:49;;;;;;;1.40;0.80;;;37.10;45.90;;;;;;4930891;29;20246;-82
2022/08/10 13:09:22;;;;;;;1.35;0.80;;;37.20;46.30;;;;;;4937378;29;20212;-81
2022/08/10 13:12:00;;;;;;;1.35;0.80;;;36.80;46.30;;;;;;4936564;29;20298;-81
2022/08/10 13:14:31;;;;;;;1.40;0.90;;;36.70;47.10;;;;;;4935446;29;20211;-82
2022/08/10 13:17:01;;;;;;;1.40;0.80;;;36.70;46.30;;;;;;4934318;29;20507;-79
2022/08/10 13:19:33;;;;;;;1.40;0.80;;;36.40;46.50;;;;;;4935972;29;20215;-81
2022/08/10 13:22:02;;;;;;;1.40;1.00;;;36.50;47.00;;;;;;4935726;29;20239;-81
2022/08/10 13:24:35;;;;;;;1.40;0.80;;;36.60;48.60;;;;;;4937791;29;20291;-81
2022/08/10 13:27:08;;;;;;;1.40;0.90;;;36.80;48.50;;;;;;4933054;29;20618;-82
2022/08/10 13:29:40;;;;;;;1.40;0.80;;;36.70;46.40;;;;;;4933385;29;20208;-81